Time;durP1;ratioP1;P1;durP2;ratioP2;P2;SDS_P1;SDS_P2;PMS_P1;PMS_P2;Temp;Humidity;BMP_temperature;BMP_pressure;BME280_temperature;BME280_humidity;BME280_pressure;Samples;Min_cycle;Max_cycle;Signal;HPM_P1;HPM_P2
2022/09/12 00:00:03;;;;;;;22.97;21.07;;;11.80;99.90;;;;;;4928671;29;20182;-77
2022/09/12 00:02:28;;;;;;;15.30;14.27;;;11.80;99.90;;;;;;4935772;29;20659;-76
2022/09/12 00:04:55;;;;;;;19.53;18.13;;;11.70;99.90;;;;;;4922067;29;20210;-77
2022/09/12 00:07:21;;;;;;;27.23;25.20;;;11.70;99.90;;;;;;4959391;28;20185;-77
2022/09/12 00:09:47;;;;;;;18.57;16.70;;;11.60;99.90;;;;;;4955076;28;20272;-78
2022/09/12 00:12:12;;;;;;;17.50;16.30;;;11.50;99.90;;;;;;4937713;29;20177;-76
2022/09/12 00:14:38;;;;;;;22.00;20.47;;;11.60;99.90;;;;;;4953674;29;20193;-77
2022/09/12 00:17:07;;;;;;;46.60;43.97;;;11.60;99.90;;;;;;4937371;29;20228;-78
2022/09/12 00:19:33;;;;;;;52.47;49.57;;;11.60;99.90;;;;;;4937586;29;20184;-77
2022/09/12 00:22:00;;;;;;;52.70;49.67;;;11.60;99.90;;;;;;4954563;29;20189;-76
2022/09/12 00:24:26;;;;;;;39.03;36.63;;;11.60;99.90;;;;;;4937551;29;20716;-76
2022/09/12 00:26:52;;;;;;;35.63;32.87;;;11.50;99.90;;;;;;4953663;29;20202;-77
2022/09/12 00:29:20;;;;;;;30.17;28.27;;;11.50;99.90;;;;;;4954155;29;20181;-77
2022/09/12 00:31:47;;;;;;;24.53;22.70;;;11.50;99.90;;;;;;4937352;29;20184;-77
2022/09/12 00:34:13;;;;;;;25.73;23.93;;;11.40;99.90;;;;;;4954663;29;20180;-76
2022/09/12 00:36:39;;;;;;;23.50;22.00;;;11.40;99.90;;;;;;4938199;29;20213;-77
2022/09/12 00:39:06;;;;;;;18.73;17.23;;;11.30;99.90;;;;;;4936734;29;20182;-78
2022/09/12 00:41:36;;;;;;;35.90;33.63;;;11.20;99.90;;;;;;4942771;29;20200;-77
2022/09/12 00:44:22;;;;;;;50.77;47.63;;;11.20;99.90;;;;;;4938915;29;20300;-77
2022/09/12 00:46:58;;;;;;;58.33;54.90;;;11.20;99.90;;;;;;4937083;29;20256;-78
2022/09/12 00:49:30;;;;;;;61.70;58.03;;;11.20;99.90;;;;;;4938286;29;20187;-77
2022/09/12 00:52:04;;;;;;;65.93;62.37;;;11.20;99.90;;;;;;4954237;29;20182;-76
2022/09/12 00:54:34;;;;;;;55.37;52.27;;;11.20;99.90;;;;;;4936579;28;20250;-77
2022/09/12 00:57:04;;;;;;;51.20;48.37;;;11.20;99.90;;;;;;4936202;29;20204;-77
2022/09/12 00:59:43;;;;;;;60.07;56.77;;;11.20;99.90;;;;;;4954392;29;20268;-77
2022/09/12 01:02:10;;;;;;;73.30;68.97;;;11.10;99.90;;;;;;4943951;29;20192;-79
2022/09/12 01:04:37;;;;;;;78.43;74.27;;;11.10;99.90;;;;;;4940650;29;20213;-78
2022/09/12 01:07:05;;;;;;;67.93;64.20;;;11.00;99.90;;;;;;4956925;29;20198;-78
2022/09/12 01:09:31;;;;;;;66.60;62.77;;;10.90;99.90;;;;;;4961189;29;20189;-78
2022/09/12 01:12:00;;;;;;;76.90;72.53;;;10.90;99.90;;;;;;4962156;29;20189;-79
2022/09/12 01:14:25;;;;;;;52.10;49.03;;;10.90;99.90;;;;;;4938743;29;20185;-77
2022/09/12 01:16:51;;;;;;;37.23;34.53;;;10.80;99.90;;;;;;4953098;29;20709;-77
2022/09/12 01:19:51;;;;;;;30.50;28.57;;;10.80;99.90;;;;;;4936897;29;20181;-77
2022/09/12 01:22:19;;;;;;;29.63;27.57;;;10.80;99.90;;;;;;4953256;29;20284;-76
2022/09/12 01:25:23;;;;;;;29.83;27.83;;;10.90;99.90;;;;;;4936919;29;20216;-77
2022/09/12 01:28:14;;;;;;;28.77;26.93;;;10.80;99.90;;;;;;4952931;29;20268;-77
2022/09/12 01:30:43;;;;;;;25.37;23.77;;;10.90;99.90;;;;;;4936227;29;20531;-79
2022/09/12 01:33:38;;;;;;;24.13;22.27;;;10.80;99.90;;;;;;4953405;29;20220;-77
2022/09/12 01:36:28;;;;;;;32.17;30.23;;;10.80;99.90;;;;;;4908625;29;20217;-76
2022/09/12 01:39:05;;;;;;;38.70;36.53;;;10.80;99.90;;;;;;4936043;29;20197;-77
2022/09/12 01:41:55;;;;;;;37.60;35.17;;;10.80;99.90;;;;;;4937363;29;20236;-76
2022/09/12 01:44:45;;;;;;;40.40;37.83;;;10.80;99.90;;;;;;4935895;29;20640;-77
2022/09/12 01:47:22;;;;;;;41.13;38.57;;;10.80;99.90;;;;;;4956037;29;20182;-77
2022/09/12 01:50:03;;;;;;;37.30;34.97;;;10.70;99.90;;;;;;4936297;29;20658;-77
2022/09/12 01:52:48;;;;;;;41.43;38.77;;;10.70;99.90;;;;;;4938333;29;20759;-77
2022/09/12 01:55:50;;;;;;;38.47;36.00;;;10.70;99.90;;;;;;4960763;29;20220;-77
2022/09/12 01:58:25;;;;;;;37.57;35.37;;;10.70;99.90;;;;;;4961461;29;20188;-78
2022/09/12 02:01:06;;;;;;;34.47;32.10;;;10.60;99.90;;;;;;4965099;29;20212;-78
2022/09/12 02:03:48;;;;;;;30.77;28.87;;;10.60;99.90;;;;;;4978359;29;20217;-78
2022/09/12 02:06:22;;;;;;;27.93;26.07;;;10.70;99.90;;;;;;4949274;29;20337;-78
2022/09/12 02:08:53;;;;;;;31.77;29.57;;;10.60;99.90;;;;;;4962884;29;20181;-78
2022/09/12 02:11:20;;;;;;;25.07;23.40;;;10.60;99.90;;;;;;4977128;29;20261;-78
2022/09/12 02:14:01;;;;;;;24.60;23.03;;;10.60;99.90;;;;;;4969030;29;20182;-78
2022/09/12 02:16:41;;;;;;;25.90;24.30;;;10.60;99.90;;;;;;4967842;29;20212;-78
2022/09/12 02:19:11;;;;;;;31.07;28.83;;;10.50;99.90;;;;;;4949192;29;20778;-79
2022/09/12 02:21:43;;;;;;;36.30;33.87;;;10.50;99.90;;;;;;4965394;29;20197;-78
2022/09/12 02:24:11;;;;;;;30.37;28.17;;;10.50;99.90;;;;;;4966358;29;20224;-78
2022/09/12 02:26:46;;;;;;;25.43;23.77;;;10.50;99.90;;;;;;4965225;29;20210;-79
2022/09/12 02:29:12;;;;;;;25.57;23.93;;;10.60;99.90;;;;;;4966044;29;20185;-78
2022/09/12 02:31:52;;;;;;;25.00;23.27;;;10.60;99.90;;;;;;4964866;29;20697;-78
2022/09/12 02:34:45;;;;;;;23.33;21.77;;;10.70;99.90;;;;;;4946127;29;20216;-78
2022/09/12 02:37:48;;;;;;;23.80;22.30;;;10.70;99.90;;;;;;4960598;29;20189;-78
2022/09/12 02:40:14;;;;;;;33.70;31.73;;;10.80;99.90;;;;;;4962502;28;20188;-78
2022/09/12 02:42:40;;;;;;;53.77;50.73;;;10.80;99.90;;;;;;4962505;29;20195;-77
2022/09/12 02:45:07;;;;;;;51.17;48.13;;;10.80;99.90;;;;;;4968234;29;20213;-78
2022/09/12 02:47:40;;;;;;;44.93;41.83;;;10.70;99.90;;;;;;4960093;29;20264;-78
2022/09/12 02:50:07;;;;;;;31.63;29.07;;;10.70;99.90;;;;;;4965849;29;20253;-78
2022/09/12 02:52:36;;;;;;;51.10;24.70;;;10.70;99.90;;;;;;4947537;29;20177;-78
2022/09/12 02:55:04;;;;;;;34.50;22.20;;;10.80;99.90;;;;;;4946306;29;20241;-78
2022/09/12 02:57:30;;;;;;;29.97;21.57;;;10.80;99.90;;;;;;4987971;23;20809;-77
2022/09/12 02:59:59;;;;;;;38.80;35.47;;;10.80;99.90;;;;;;4993621;28;20572;-75
2022/09/12 03:02:45;;;;;;;30.20;27.37;;;10.90;99.90;;;;;;4995460;28;20549;-74
2022/09/12 03:05:29;;;;;;;26.00;23.80;;;10.90;99.90;;;;;;4992378;28;20196;-78
2022/09/12 03:08:14;;;;;;;25.87;23.23;;;10.90;99.90;;;;;;4985034;28;20212;-77
2022/09/12 03:10:56;;;;;;;32.70;27.17;;;10.90;99.90;;;;;;4974612;28;20181;-75
2022/09/12 03:13:51;;;;;;;43.50;26.57;;;11.00;99.90;;;;;;4973652;28;20193;-74
2022/09/12 03:16:38;;;;;;;26.63;24.13;;;11.10;99.90;;;;;;4975080;28;20181;-77
2022/09/12 03:19:19;;;;;;;46.27;42.30;;;11.10;99.90;;;;;;4974852;28;20205;-78
2022/09/12 03:22:12;;;;;;;25.70;20.33;;;11.10;99.90;;;;;;4974770;28;20219;-77
2022/09/12 03:24:51;;;;;;;27.50;22.93;;;11.00;99.90;;;;;;4975669;28;20223;-77
2022/09/12 03:27:32;;;;;;;32.17;22.03;;;11.00;99.90;;;;;;4972823;28;20177;-78
2022/09/12 03:29:59;;;;;;;29.97;27.33;;;11.00;99.90;;;;;;4973198;28;20211;-77
2022/09/12 03:32:48;;;;;;;30.13;22.33;;;11.00;99.90;;;;;;4973267;28;20650;-77
2022/09/12 03:35:17;;;;;;;26.70;24.03;;;11.00;99.90;;;;;;4973803;28;20181;-77
2022/09/12 03:37:44;;;;;;;31.27;28.20;;;11.10;99.90;;;;;;4971425;28;20743;-76
2022/09/12 03:40:10;;;;;;;24.47;22.20;;;11.00;99.90;;;;;;4973741;28;20181;-77
2022/09/12 03:42:37;;;;;;;39.10;35.50;;;11.00;99.90;;;;;;4973600;28;20614;-77
2022/09/12 03:45:04;;;;;;;42.23;38.40;;;10.90;99.90;;;;;;4973835;28;20220;-77
2022/09/12 03:47:30;;;;;;;40.77;37.47;;;10.90;99.90;;;;;;4971746;28;20201;-77
2022/09/12 03:49:56;;;;;;;42.03;38.53;;;10.90;99.90;;;;;;4973362;28;20192;-77
2022/09/12 03:52:22;;;;;;;46.07;42.23;;;10.90;99.90;;;;;;4971268;28;20181;-76
2022/09/12 03:54:48;;;;;;;38.73;35.07;;;11.00;99.90;;;;;;4968516;28;20770;-76
2022/09/12 03:57:14;;;;;;;38.83;36.17;;;10.90;99.90;;;;;;4956870;28;20197;-76
2022/09/12 03:59:40;;;;;;;34.83;31.93;;;10.90;99.90;;;;;;4953892;28;20199;-76
2022/09/12 04:02:05;;;;;;;30.27;27.67;;;11.00;99.90;;;;;;4965056;28;20188;-76
2022/09/12 04:04:31;;;;;;;25.03;22.17;;;11.00;99.90;;;;;;4973612;28;20409;-76
2022/09/12 04:06:57;;;;;;;24.03;21.57;;;10.90;99.90;;;;;;4972606;28;20185;-76
2022/09/12 04:09:23;;;;;;;25.87;23.47;;;11.00;99.90;;;;;;4972927;28;20205;-76
2022/09/12 04:11:49;;;;;;;28.00;24.90;;;11.00;99.90;;;;;;4972802;28;20236;-76
2022/09/12 04:14:15;;;;;;;32.20;29.83;;;11.00;99.90;;;;;;4973035;28;20188;-76
2022/09/12 04:16:41;;;;;;;38.67;35.63;;;11.00;99.90;;;;;;4972684;28;20212;-76
2022/09/12 04:19:10;;;;;;;43.67;39.13;;;11.10;99.90;;;;;;4970685;28;20201;-76
2022/09/12 04:21:36;;;;;;;52.87;27.37;;;11.10;99.90;;;;;;4972667;28;20181;-76
2022/09/12 04:24:02;;;;;;;31.13;23.10;;;11.10;99.90;;;;;;4972084;28;20224;-76
2022/09/12 04:26:30;;;;;;;45.03;16.87;;;11.10;99.90;;;;;;4971261;28;20177;-75
2022/09/12 04:28:57;;;;;;;18.47;12.90;;;11.00;99.90;;;;;;4988186;28;20201;-76
2022/09/12 04:31:23;;;;;;;27.07;24.50;;;11.00;99.90;;;;;;4971866;28;20199;-75
2022/09/12 04:33:59;;;;;;;30.37;27.80;;;11.00;99.90;;;;;;4972261;28;20196;-76
2022/09/12 04:36:27;;;;;;;23.57;21.70;;;11.00;99.90;;;;;;4971730;28;20402;-76
2022/09/12 04:38:53;;;;;;;33.53;18.03;;;11.00;99.90;;;;;;4972063;28;20201;-76
2022/09/12 04:41:25;;;;;;;21.00;19.00;;;11.00;99.90;;;;;;4971853;28;20181;-76
2022/09/12 04:44:03;;;;;;;34.87;32.27;;;11.00;99.90;;;;;;4972621;28;20483;-76
2022/09/12 04:46:31;;;;;;;48.60;45.23;;;10.90;99.90;;;;;;4971955;28;20211;-76
2022/09/12 04:48:57;;;;;;;47.37;44.30;;;10.80;99.90;;;;;;4971853;28;20276;-76
2022/09/12 04:51:26;;;;;;;45.93;43.10;;;10.80;99.90;;;;;;4972407;28;20280;-76
2022/09/12 04:53:58;;;;;;;20.83;18.90;;;10.70;99.90;;;;;;4970544;28;20228;-76
2022/09/12 04:56:25;;;;;;;25.70;23.50;;;10.60;99.90;;;;;;4971461;28;20186;-76
2022/09/12 04:58:51;;;;;;;43.93;39.57;;;10.50;99.90;;;;;;4971737;28;20219;-76
2022/09/12 05:01:22;;;;;;;37.80;31.17;;;10.50;99.90;;;;;;4972030;28;20676;-76
2022/09/12 05:03:49;;;;;;;42.53;36.70;;;10.50;99.90;;;;;;4972510;28;20209;-76
2022/09/12 05:06:20;;;;;;;53.80;27.43;;;10.50;99.90;;;;;;4971156;28;20182;-76
2022/09/12 05:08:46;;;;;;;38.90;18.03;;;10.50;99.90;;;;;;4970811;28;20224;-76
2022/09/12 05:11:21;;;;;;;16.23;15.07;;;10.50;99.90;;;;;;4972397;28;20548;-76
2022/09/12 05:13:47;;;;;;;18.37;16.80;;;10.60;99.90;;;;;;4972485;28;20189;-76
2022/09/12 05:16:15;;;;;;;21.53;19.00;;;10.60;99.90;;;;;;4970379;28;20235;-76
2022/09/12 05:18:43;;;;;;;37.57;33.80;;;10.60;99.90;;;;;;4970280;28;20208;-76
2022/09/12 05:21:12;;;;;;;77.10;72.90;;;10.70;99.90;;;;;;4972285;28;20183;-76
2022/09/12 05:23:38;;;;;;;105.90;99.60;;;10.70;99.90;;;;;;4971370;28;20219;-76
2022/09/12 05:26:05;;;;;;;87.10;81.87;;;10.80;99.90;;;;;;4972184;28;20181;-76
2022/09/12 05:28:35;;;;;;;89.93;84.83;;;10.80;99.90;;;;;;4971006;28;20235;-76
2022/09/12 05:31:03;;;;;;;50.10;34.07;;;10.90;99.90;;;;;;4971451;28;20188;-76
2022/09/12 05:33:30;;;;;;;19.77;17.93;;;11.10;99.90;;;;;;4972093;28;20184;-76
2022/09/12 05:35:57;;;;;;;25.83;24.03;;;11.20;99.90;;;;;;4972155;28;20185;-76
2022/09/12 05:38:23;;;;;;;28.03;26.07;;;11.40;99.90;;;;;;4970493;28;20205;-76
2022/09/12 05:40:50;;;;;;;21.53;19.80;;;11.50;99.90;;;;;;4972252;28;20190;-76
2022/09/12 05:43:16;;;;;;;21.53;19.80;;;11.70;99.90;;;;;;4970804;28;20211;-76
2022/09/12 05:45:42;;;;;;;54.97;51.27;;;12.00;99.90;;;;;;4971467;28;20196;-76
2022/09/12 05:48:08;;;;;;;44.23;41.33;;;12.30;99.90;;;;;;4969858;28;20221;-76
2022/09/12 05:50:34;;;;;;;48.33;44.60;;;12.50;99.90;;;;;;4971588;28;20177;-76
2022/09/12 05:53:00;;;;;;;92.27;87.33;;;12.70;99.90;;;;;;4971699;28;20178;-76
2022/09/12 05:55:25;;;;;;;49.93;46.90;;;12.90;99.90;;;;;;4970699;28;20188;-77
2022/09/12 05:57:52;;;;;;;18.43;16.97;;;13.00;99.90;;;;;;4970528;28;20220;-77
2022/09/12 06:00:19;;;;;;;17.07;15.90;;;13.10;99.90;;;;;;4970923;28;20221;-75
2022/09/12 06:02:52;;;;;;;15.50;14.27;;;13.30;99.90;;;;;;4971322;28;20188;-77
2022/09/12 06:05:18;;;;;;;13.10;11.03;;;13.40;99.90;;;;;;4972098;28;20239;-77
2022/09/12 06:07:45;;;;;;;12.73;11.60;;;13.70;99.90;;;;;;4991917;28;20213;-76
2022/09/12 06:10:12;;;;;;;14.47;11.23;;;14.00;99.90;;;;;;4970950;28;20700;-76
2022/09/12 06:12:38;;;;;;;12.07;11.10;;;14.00;99.90;;;;;;4971746;28;20185;-76
2022/09/12 06:15:05;;;;;;;15.30;14.10;;;14.00;99.90;;;;;;4971784;28;20567;-77
2022/09/12 06:17:31;;;;;;;18.23;16.63;;;14.00;99.90;;;;;;4969232;28;20236;-77
2022/09/12 06:19:57;;;;;;;25.90;24.17;;;13.90;99.90;;;;;;4972150;28;20181;-76
2022/09/12 06:22:23;;;;;;;25.50;23.97;;;14.00;99.90;;;;;;4971934;28;20188;-77
2022/09/12 06:24:48;;;;;;;24.17;22.67;;;14.10;99.90;;;;;;4971103;28;20222;-77
2022/09/12 06:27:14;;;;;;;19.37;18.17;;;14.10;99.90;;;;;;4970948;28;20181;-77
2022/09/12 06:29:40;;;;;;;16.00;15.00;;;14.20;99.90;;;;;;4971673;28;20185;-77
2022/09/12 06:32:06;;;;;;;14.47;13.47;;;14.60;99.90;;;;;;4970852;28;20181;-77
2022/09/12 06:34:32;;;;;;;9.20;8.60;;;15.20;99.90;;;;;;4971899;28;20574;-77
2022/09/12 06:36:58;;;;;;;14.03;9.53;;;15.60;99.90;;;;;;4971077;28;20201;-77
2022/09/12 06:39:24;;;;;;;13.60;12.70;;;15.80;99.90;;;;;;4971862;28;20209;-77
2022/09/12 06:41:51;;;;;;;13.10;12.03;;;15.80;99.90;;;;;;4973963;28;20188;-77
2022/09/12 06:44:19;;;;;;;17.00;15.97;;;16.10;99.90;;;;;;4974826;28;20236;-77
2022/09/12 06:46:45;;;;;;;17.83;16.83;;;16.60;99.90;;;;;;4974139;28;20180;-76
2022/09/12 06:49:12;;;;;;;12.97;12.20;;;17.00;99.90;;;;;;4975550;28;20296;-74
2022/09/12 06:51:40;;;;;;;26.50;24.90;;;17.70;99.90;;;;;;4975124;28;20184;-73
2022/09/12 06:54:06;;;;;;;30.20;28.40;;;18.20;99.90;;;;;;4974154;28;20216;-73
2022/09/12 06:56:33;;;;;;;30.37;28.57;;;18.60;99.90;;;;;;4974946;28;20674;-73
2022/09/12 06:58:58;;;;;;;40.33;38.17;;;18.70;99.90;;;;;;4973614;28;20216;-73
2022/09/12 07:01:29;;;;;;;73.50;69.87;;;18.80;99.90;;;;;;4972855;28;20267;-73
2022/09/12 07:04:00;;;;;;;76.70;72.93;;;18.90;99.90;;;;;;4974778;28;20224;-73
2022/09/12 07:06:30;;;;;;;92.33;87.73;;;19.10;99.90;;;;;;4975193;28;20189;-73
2022/09/12 07:09:00;;;;;;;50.63;48.03;;;19.20;99.90;;;;;;4972947;28;20204;-74
2022/09/12 07:11:35;;;;;;;30.17;28.63;;;19.50;99.90;;;;;;4973897;28;20181;-74
2022/09/12 07:14:02;;;;;;;17.20;16.07;;;19.70;99.90;;;;;;4973823;28;20208;-74
2022/09/12 07:16:28;;;;;;;16.80;15.73;;;19.90;99.90;;;;;;4972913;28;20177;-74
2022/09/12 07:19:00;;;;;;;26.83;25.20;;;20.10;99.90;;;;;;4972737;28;20288;-73
2022/09/12 07:21:27;;;;;;;10.07;9.27;;;20.20;99.90;;;;;;4972945;28;20193;-74
2022/09/12 07:23:55;;;;;;;7.80;7.33;;;20.40;99.90;;;;;;4974883;28;20212;-73
2022/09/12 07:26:22;;;;;;;9.53;8.70;;;20.70;99.90;;;;;;4973045;28;20260;-72
2022/09/12 07:28:55;;;;;;;10.63;9.77;;;21.00;99.90;;;;;;4967224;28;20201;-72
2022/09/12 07:31:23;;;;;;;9.57;8.97;;;20.80;99.90;;;;;;4968969;28;20185;-72
2022/09/12 07:33:50;;;;;;;9.53;8.83;;;20.70;99.90;;;;;;4974427;28;20447;-74
2022/09/12 07:36:18;;;;;;;12.03;11.17;;;20.60;99.90;;;;;;4973516;28;20545;-72
2022/09/12 07:38:45;;;;;;;14.17;13.33;;;21.00;99.90;;;;;;4973234;28;20212;-72
2022/09/12 07:41:17;;;;;;;21.07;19.93;;;21.40;99.90;;;;;;4973406;28;20185;-72
2022/09/12 07:43:43;;;;;;;34.17;32.28;;;21.70;99.90;;;;;;4972864;28;20217;-72
2022/09/12 07:46:09;;;;;;;38.10;35.90;;;21.90;99.90;;;;;;4973217;28;20184;-73
2022/09/12 07:48:35;;;;;;;31.92;30.13;;;21.40;99.90;;;;;;4977003;28;20197;-73
2022/09/12 07:51:03;;;;;;;25.13;23.73;;;21.20;99.90;;;;;;4973574;28;20176;-72
2022/09/12 07:53:38;;;;;;;20.50;19.37;;;21.00;99.90;;;;;;4974542;28;20185;-72
2022/09/12 07:56:05;;;;;;;20.47;19.23;;;21.30;99.90;;;;;;4973401;28;20989;-72
2022/09/12 07:58:33;;;;;;;27.93;26.30;;;21.60;99.90;;;;;;4972332;28;20221;-72
2022/09/12 08:01:13;;;;;;;53.53;50.63;;;21.60;99.90;;;;;;4972022;28;20199;-72
2022/09/12 08:03:41;;;;;;;57.93;54.50;;;21.90;99.90;;;;;;4972240;28;20216;-72
2022/09/12 08:06:14;;;;;;;49.67;46.80;;;22.10;99.90;;;;;;4973752;28;20673;-73
2022/09/12 08:08:41;;;;;;;68.80;65.15;;;22.10;99.90;;;;;;4972716;28;20197;-73
2022/09/12 08:11:09;;;;;;;47.55;45.00;;;22.50;99.90;;;;;;4972775;28;20181;-73
2022/09/12 08:13:37;;;;;;;28.52;26.98;;;22.70;99.90;;;;;;4973494;28;20191;-72
2022/09/12 08:16:07;;;;;;;32.88;30.80;;;22.80;99.90;;;;;;4973457;28;20654;-72
2022/09/12 08:18:34;;;;;;;18.13;16.90;;;22.70;99.90;;;;;;4972839;28;20694;-73
2022/09/12 08:21:03;;;;;;;12.27;11.50;;;23.00;99.90;;;;;;4972420;28;20184;-73
2022/09/12 08:23:30;;;;;;;10.25;9.57;;;23.40;99.90;;;;;;4973680;28;20216;-72
2022/09/12 08:25:57;;;;;;;9.57;9.07;;;23.50;99.90;;;;;;4968713;28;20184;-72
2022/09/12 08:28:24;;;;;;;10.43;9.63;;;23.50;99.90;;;;;;4957213;28;20293;-72
2022/09/12 08:30:52;;;;;;;7.68;6.97;;;23.90;99.90;;;;;;4954095;28;20730;-72
2022/09/12 08:33:18;;;;;;;7.28;6.78;;;24.20;99.90;;;;;;4966091;28;20188;-72
2022/09/12 08:35:44;;;;;;;7.72;7.18;;;24.40;99.90;;;;;;4973572;28;20188;-73
2022/09/12 08:38:10;;;;;;;13.18;7.72;;;24.40;99.90;;;;;;4972456;28;20205;-72
2022/09/12 08:41:07;;;;;;;7.05;6.45;;;23.90;99.90;;;;;;4972555;28;20177;-72
2022/09/12 08:44:15;;;;;;;7.15;6.55;;;23.50;99.90;;;;;;4972882;28;20228;-73
2022/09/12 08:46:47;;;;;;;7.00;6.32;;;23.60;99.90;;;;;;4953478;29;20233;-74
2022/09/12 08:49:19;;;;;;;8.10;7.20;;;23.90;99.90;;;;;;4952631;28;20229;-72
2022/09/12 08:51:46;;;;;;;9.93;9.13;;;23.60;99.90;;;;;;4953407;28;20588;-72
2022/09/12 08:54:21;;;;;;;9.27;8.65;;;23.60;99.90;;;;;;4953484;28;20196;-72
2022/09/12 08:56:47;;;;;;;9.13;8.48;;;23.60;99.90;;;;;;4952207;28;20185;-72
2022/09/12 08:59:14;;;;;;;8.73;8.27;;;23.80;99.90;;;;;;4975267;23;20730;-76
2022/09/12 09:01:43;;;;;;;8.95;8.38;;;23.90;99.90;;;;;;4951969;28;20186;-74
2022/09/12 09:04:51;;;;;;;10.07;9.57;;;24.00;99.90;;;;;;4954082;28;20629;-76
2022/09/12 09:08:04;;;;;;;8.57;7.97;;;24.00;99.90;;;;;;4893371;29;20183;-72
2022/09/12 09:10:55;;;;;;;6.47;5.95;;;24.50;99.90;;;;;;4934079;29;20666;-75
2022/09/12 09:16:36;;;;;;;6.88;6.53;;;25.40;99.90;;;;;;4934161;29;20190;-73
2022/09/12 09:19:07;;;;;;;6.97;6.28;;;25.70;99.90;;;;;;4925670;29;20233;-74
2022/09/12 09:21:50;;;;;;;5.97;5.63;;;25.50;99.90;;;;;;4916742;29;20191;-73
2022/09/12 09:24:20;;;;;;;7.78;7.38;;;25.40;99.90;;;;;;4913646;29;20211;-72
2022/09/12 09:26:50;;;;;;;5.85;5.47;;;25.60;99.90;;;;;;4948797;29;20177;-73
2022/09/12 09:29:19;;;;;;;4.50;4.10;;;26.30;99.90;;;;;;4951790;29;20249;-73
2022/09/12 09:31:52;;;;;;;4.95;4.65;;;26.50;99.90;;;;;;4951718;29;20182;-74
2022/09/12 09:34:20;;;;;;;4.20;4.00;;;26.20;99.90;;;;;;4952157;28;20182;-75
2022/09/12 09:37:14;;;;;;;7.20;5.80;;;25.80;99.90;;;;;;4951054;28;20182;-70
2022/09/12 09:39:42;;;;;;;5.22;4.88;;;25.90;99.90;;;;;;4933742;29;20214;-74
2022/09/12 09:42:20;;;;;;;6.13;5.13;;;26.40;99.90;;;;;;4934610;29;20221;-74
2022/09/12 09:44:47;;;;;;;4.78;4.57;;;26.80;99.90;;;;;;4933777;29;20221;-72
2022/09/12 09:47:15;;;;;;;5.00;4.70;;;27.20;99.90;;;;;;4932915;29;20218;-74
2022/09/12 09:49:41;;;;;;;5.32;4.10;;;27.80;97.70;;;;;;4932160;29;20266;-73
2022/09/12 09:52:13;;;;;;;5.15;4.95;;;27.70;97.30;;;;;;4933788;29;20185;-72
2022/09/12 09:54:46;;;;;;;5.55;5.25;;;27.90;96.20;;;;;;4932530;29;20190;-73
2022/09/12 09:57:34;;;;;;;8.52;7.82;;;28.00;96.30;;;;;;4931463;29;20187;-74
2022/09/12 10:00:30;;;;;;;10.88;10.35;;;28.20;93.60;;;;;;4933677;29;20198;-74
2022/09/12 10:03:03;;;;;;;36.33;34.65;;;27.90;93.50;;;;;;4921355;29;20238;-75
2022/09/12 10:05:31;;;;;;;41.65;39.65;;;27.80;93.60;;;;;;4934013;29;20178;-74
2022/09/12 10:07:57;;;;;;;57.10;54.33;;;28.00;92.20;;;;;;4934135;29;20551;-74
2022/09/12 10:10:24;;;;;;;58.33;55.47;;;27.90;91.40;;;;;;4932052;29;20182;-74
2022/09/12 10:13:04;;;;;;;62.13;59.15;;;28.10;91.50;;;;;;4933992;29;20183;-73
2022/09/12 10:15:30;;;;;;;26.58;25.33;;;28.60;90.50;;;;;;4955898;29;20185;-72
2022/09/12 10:17:57;;;;;;;22.67;21.42;;;28.70;89.90;;;;;;4954573;28;20588;-73
2022/09/12 10:20:42;;;;;;;13.73;13.13;;;28.80;88.70;;;;;;4956077;28;20188;-73
2022/09/12 10:23:36;;;;;;;50.10;47.50;;;28.20;88.10;;;;;;4954812;29;20197;-72
2022/09/12 10:26:08;;;;;;;58.38;55.55;;;27.80;91.70;;;;;;4938179;29;20257;-76
2022/09/12 10:28:40;;;;;;;20.33;19.33;;;28.40;90.70;;;;;;4935669;29;20210;-73
2022/09/12 10:31:09;;;;;;;24.35;23.20;;;28.90;87.70;;;;;;4928477;29;20179;-73
2022/09/12 10:33:45;;;;;;;14.43;13.73;;;28.80;87.50;;;;;;4918693;29;20191;-72
2022/09/12 10:36:10;;;;;;;25.10;23.85;;;29.30;87.10;;;;;;4918098;29;20183;-73
2022/09/12 10:38:37;;;;;;;12.98;12.40;;;29.30;88.50;;;;;;4952892;29;20210;-73
2022/09/12 10:41:07;;;;;;;19.20;18.33;;;29.50;84.40;;;;;;4954711;29;20213;-72
2022/09/12 10:43:34;;;;;;;7.32;7.03;;;29.40;85.60;;;;;;4955260;28;20216;-72
2022/09/12 10:46:18;;;;;;;8.85;8.30;;;29.50;82.70;;;;;;4955000;28;20260;-73
2022/09/12 10:48:45;;;;;;;17.20;16.35;;;29.50;82.60;;;;;;4950647;29;20202;-73
2022/09/12 10:51:27;;;;;;;6.22;5.93;;;29.40;85.20;;;;;;4935148;29;20189;-73
2022/09/12 10:53:58;;;;;;;4.95;4.68;;;30.00;79.80;;;;;;4935773;29;20249;-73
2022/09/12 10:56:34;;;;;;;4.68;4.38;;;30.10;76.50;;;;;;4936450;29;20222;-72
2022/09/12 10:59:23;;;;;;;5.65;5.35;;;29.80;76.50;;;;;;4935402;29;20224;-73
2022/09/12 11:02:00;;;;;;;6.65;6.35;;;30.50;75.80;;;;;;4935431;29;20242;-73
2022/09/12 11:05:04;;;;;;;8.13;7.78;;;31.10;73.50;;;;;;4935176;29;20226;-73
2022/09/12 11:07:51;;;;;;;6.45;6.13;;;30.90;72.10;;;;;;4917004;29;20195;-71
2022/09/12 11:10:35;;;;;;;12.10;11.45;;;30.30;72.70;;;;;;4917395;29;20183;-73
2022/09/12 11:13:22;;;;;;;5.65;5.45;;;30.10;71.80;;;;;;4916980;29;20194;-73
2022/09/12 11:15:54;;;;;;;6.07;5.75;;;29.90;72.50;;;;;;4916831;29;20658;-73
2022/09/12 11:18:35;;;;;;;12.85;12.27;;;30.50;73.10;;;;;;4914939;29;20203;-73
2022/09/12 11:21:06;;;;;;;6.80;6.45;;;31.30;69.30;;;;;;4917004;29;20719;-74
2022/09/12 11:24:01;;;;;;;9.55;9.15;;;31.30;69.60;;;;;;4917550;29;20592;-74
2022/09/12 11:27:08;;;;;;;12.38;11.77;;;32.00;66.60;;;;;;4916686;29;20255;-72
2022/09/12 11:29:40;;;;;;;11.30;10.80;;;31.60;66.00;;;;;;4858230;29;20717;-73
2022/09/12 11:32:31;;;;;;;12.95;12.38;;;31.40;65.60;;;;;;4908296;29;20198;-73
2022/09/12 11:35:29;;;;;;;8.43;8.10;;;31.00;65.00;;;;;;4916753;29;20214;-73
2022/09/12 11:38:10;;;;;;;9.45;8.90;;;30.30;65.80;;;;;;4915449;29;20250;-73
2022/09/12 11:40:49;;;;;;;10.98;10.50;;;30.00;64.50;;;;;;4916582;29;20212;-73
2022/09/12 11:43:37;;;;;;;11.93;11.32;;;29.70;64.90;;;;;;4916351;29;20250;-73
2022/09/12 11:46:17;;;;;;;9.95;9.45;;;30.00;68.50;;;;;;4915623;29;20270;-73
2022/09/12 11:48:45;;;;;;;10.82;9.93;;;30.80;64.20;;;;;;4914153;29;20569;-74
2022/09/12 11:51:19;;;;;;;11.77;11.27;;;31.70;62.20;;;;;;4919523;29;20191;-73
2022/09/12 11:54:17;;;;;;;31.02;29.60;;;32.20;59.20;;;;;;4919043;29;20195;-73
2022/09/12 11:56:52;;;;;;;10.43;9.93;;;31.30;59.30;;;;;;4901944;29;20195;-73
2022/09/12 11:59:36;;;;;;;10.02;9.60;;;30.50;62.10;;;;;;4915711;29;20265;-73
2022/09/12 12:02:02;;;;;;;24.95;23.80;;;31.10;60.90;;;;;;4916057;29;20193;-73
2022/09/12 12:04:38;;;;;;;18.75;17.90;;;31.60;60.30;;;;;;4915212;29;20211;-73
2022/09/12 12:07:06;;;;;;;21.48;20.42;;;31.50;59.00;;;;;;4928993;29;20196;-73
2022/09/12 12:09:33;;;;;;;16.33;15.60;;;31.40;59.20;;;;;;4953905;29;20197;-74
2022/09/12 12:12:05;;;;;;;46.58;44.42;;;31.50;59.80;;;;;;4952735;28;20182;-73
2022/09/12 12:14:43;;;;;;;44.25;42.17;;;31.90;57.90;;;;;;4953811;28;20190;-73
2022/09/12 12:17:21;;;;;;;110.93;105.50;;;32.30;57.80;;;;;;4953047;29;20268;-74
2022/09/12 12:19:57;;;;;;;118.88;113.20;;;32.60;56.20;;;;;;4952878;29;20185;-74
2022/09/12 12:22:24;;;;;;;91.53;87.22;;;32.00;55.60;;;;;;4953576;29;20195;-74
2022/09/12 12:24:56;;;;;;;78.40;74.75;;;32.20;55.80;;;;;;4953584;28;20749;-74
2022/09/12 12:27:52;;;;;;;103.10;98.18;;;32.60;55.70;;;;;;4952124;29;20185;-74
2022/09/12 12:30:30;;;;;;;105.00;100.03;;;33.90;53.40;;;;;;4953500;29;20269;-75
2022/09/12 12:33:00;;;;;;;103.05;98.22;;;33.80;53.50;;;;;;4952765;29;20213;-73
2022/09/12 12:35:35;;;;;;;107.07;102.00;;;33.50;52.60;;;;;;4954434;29;20182;-74
2022/09/12 12:38:02;;;;;;;98.50;93.88;;;33.40;54.30;;;;;;4951066;28;20291;-74
2022/09/12 12:40:30;;;;;;;73.45;70.00;;;34.00;53.10;;;;;;4952734;29;20189;-74
2022/09/12 12:43:03;;;;;;;70.78;67.43;;;34.20;51.60;;;;;;4951220;28;20249;-74
2022/09/12 12:45:29;;;;;;;59.65;56.45;;;33.40;52.80;;;;;;4933962;29;20190;-74
2022/09/12 12:48:00;;;;;;;40.30;38.35;;;34.80;50.20;;;;;;4932477;29;20630;-74
2022/09/12 12:50:28;;;;;;;33.30;31.70;;;34.90;51.60;;;;;;4934033;29;20234;-74
2022/09/12 12:53:05;;;;;;;33.42;31.83;;;35.10;51.70;;;;;;4934009;29;20217;-74
2022/09/12 12:55:32;;;;;;;41.95;40.00;;;36.00;48.20;;;;;;4932523;29;20232;-74
2022/09/12 12:58:02;;;;;;;38.78;36.90;;;35.40;48.20;;;;;;4932840;29;20703;-74
2022/09/12 13:00:34;;;;;;;34.28;32.47;;;35.20;48.70;;;;;;4933827;29;20198;-74